sensor_id;sensor_type;location;lat;lon;timestamp;temperature;humidity
16200;DHT22;8207;52.494;4.654;2023-02-12T00:01:11;7.80;99.90
16200;DHT22;8207;52.494;4.654;2023-02-12T00:03:39;7.80;99.90
16200;DHT22;8207;52.494;4.654;2023-02-12T00:06:07;7.80;99.90
16200;DHT22;8207;52.494;4.654;2023-02-12T00:08:37;7.80;99.90
16200;DHT22;8207;52.494;4.654;2023-02-12T00:11:09;7.80;99.90
16200;DHT22;8207;52.494;4.654;2023-02-12T00:13:36;7.80;99.90
16200;DHT22;8207;52.494;4.654;2023-02-12T00:16:05;7.80;99.90
16200;DHT22;8207;52.494;4.654;2023-02-12T00:18:32;7.80;99.90
16200;DHT22;8207;52.494;4.654;2023-02-12T00:21:00;7.80;99.90
16200;DHT22;8207;52.494;4.654;2023-02-12T00:23:27;7.80;99.90
16200;DHT22;8207;52.494;4.654;2023-02-12T00:25:55;7.80;99.90
16200;DHT22;8207;52.494;4.654;2023-02-12T00:28:22;7.80;99.90
16200;DHT22;8207;52.494;4.654;2023-02-12T00:30:49;7.80;99.90
16200;DHT22;8207;52.494;4.654;2023-02-12T00:33:16;7.80;99.90
16200;DHT22;8207;52.494;4.654;2023-02-12T00:35:43;7.80;99.90
16200;DHT22;8207;52.494;4.654;2023-02-12T00:38:10;7.80;99.90
16200;DHT22;8207;52.494;4.654;2023-02-12T00:40:37;7.80;99.90
16200;DHT22;8207;52.494;4.654;2023-02-12T00:43:05;7.80;99.90
16200;DHT22;8207;52.494;4.654;2023-02-12T00:45:32;7.90;99.90
16200;DHT22;8207;52.494;4.654;2023-02-12T00:47:59;7.80;99.90
16200;DHT22;8207;52.494;4.654;2023-02-12T00:50:26;7.90;99.90
16200;DHT22;8207;52.494;4.654;2023-02-12T00:52:53;7.90;99.90
16200;DHT22;8207;52.494;4.654;2023-02-12T00:55:20;7.90;99.90
16200;DHT22;8207;52.494;4.654;2023-02-12T00:57:47;7.90;99.90
16200;DHT22;8207;52.494;4.654;2023-02-12T01:00:16;7.90;99.90
16200;DHT22;8207;52.494;4.654;2023-02-12T01:02:43;7.80;99.90
16200;DHT22;8207;52.494;4.654;2023-02-12T01:05:10;7.90;99.90
16200;DHT22;8207;52.494;4.654;2023-02-12T01:07:36;7.80;99.90
16200;DHT22;8207;52.494;4.654;2023-02-12T01:10:06;7.80;99.90
16200;DHT22;8207;52.494;4.654;2023-02-12T01:12:33;7.70;99.90
16200;DHT22;8207;52.494;4.654;2023-02-12T01:15:01;7.70;99.90
16200;DHT22;8207;52.494;4.654;2023-02-12T01:17:29;7.70;99.90
16200;DHT22;8207;52.494;4.654;2023-02-12T01:19:57;7.70;99.90
16200;DHT22;8207;52.494;4.654;2023-02-12T01:22:24;7.70;99.90
16200;DHT22;8207;52.494;4.654;2023-02-12T01:24:51;7.60;99.90
16200;DHT22;8207;52.494;4.654;2023-02-12T01:27:18;7.60;99.90
16200;DHT22;8207;52.494;4.654;2023-02-12T01:29:45;7.60;99.90
16200;DHT22;8207;52.494;4.654;2023-02-12T01:32:12;7.60;99.90
16200;DHT22;8207;52.494;4.654;2023-02-12T01:34:41;7.60;99.90
16200;DHT22;8207;52.494;4.654;2023-02-12T01:37:07;7.50;99.90
16200;DHT22;8207;52.494;4.654;2023-02-12T01:39:35;7.50;99.90
16200;DHT22;8207;52.494;4.654;2023-02-12T01:42:03;7.50;99.90
16200;DHT22;8207;52.494;4.654;2023-02-12T01:44:32;7.50;99.90
16200;DHT22;8207;52.494;4.654;2023-02-12T01:47:01;7.40;99.90
16200;DHT22;8207;52.494;4.654;2023-02-12T01:49:32;7.40;99.90
16200;DHT22;8207;52.494;4.654;2023-02-12T01:52:05;7.30;99.90
16200;DHT22;8207;52.494;4.654;2023-02-12T01:54:34;7.30;99.90
16200;DHT22;8207;52.494;4.654;2023-02-12T01:57:04;7.20;99.90
16200;DHT22;8207;52.494;4.654;2023-02-12T01:59:32;7.20;99.90
16200;DHT22;8207;52.494;4.654;2023-02-12T02:02:01;7.10;99.90
16200;DHT22;8207;52.494;4.654;2023-02-12T02:04:31;7.10;99.90
16200;DHT22;8207;52.494;4.654;2023-02-12T02:07:03;7.00;99.90
16200;DHT22;8207;52.494;4.654;2023-02-12T02:09:32;7.00;99.90
16200;DHT22;8207;52.494;4.654;2023-02-12T02:12:00;7.00;99.90
16200;DHT22;8207;52.494;4.654;2023-02-12T02:14:46;6.90;99.90
16200;DHT22;8207;52.494;4.654;2023-02-12T02:17:37;6.90;99.90
16200;DHT22;8207;52.494;4.654;2023-02-12T02:23:33;6.80;99.90
16200;DHT22;8207;52.494;4.654;2023-02-12T02:26:27;6.80;99.90
16200;DHT22;8207;52.494;4.654;2023-02-12T02:29:26;6.70;99.90
16200;DHT22;8207;52.494;4.654;2023-02-12T02:32:02;6.70;99.90
16200;DHT22;8207;52.494;4.654;2023-02-12T02:34:38;6.70;99.90
16200;DHT22;8207;52.494;4.654;2023-02-12T02:37:16;6.60;99.90
16200;DHT22;8207;52.494;4.654;2023-02-12T02:39:48;6.60;99.90
16200;DHT22;8207;52.494;4.654;2023-02-12T02:42:21;6.50;99.90
16200;DHT22;8207;52.494;4.654;2023-02-12T02:44:52;6.50;99.90
16200;DHT22;8207;52.494;4.654;2023-02-12T02:47:24;6.50;99.90
16200;DHT22;8207;52.494;4.654;2023-02-12T02:49:55;6.40;99.90
16200;DHT22;8207;52.494;4.654;2023-02-12T02:52:26;6.40;99.90
16200;DHT22;8207;52.494;4.654;2023-02-12T02:54:59;6.40;99.90
16200;DHT22;8207;52.494;4.654;2023-02-12T02:57:30;6.40;99.90
16200;DHT22;8207;52.494;4.654;2023-02-12T03:00:06;6.40;99.90
16200;DHT22;8207;52.494;4.654;2023-02-12T03:02:37;6.40;99.90
16200;DHT22;8207;52.494;4.654;2023-02-12T03:05:08;6.40;99.90
16200;DHT22;8207;52.494;4.654;2023-02-12T03:07:37;6.40;99.90
16200;DHT22;8207;52.494;4.654;2023-02-12T03:10:12;6.40;99.90
16200;DHT22;8207;52.494;4.654;2023-02-12T03:12:43;6.40;99.90
16200;DHT22;8207;52.494;4.654;2023-02-12T03:15:17;6.40;99.90
16200;DHT22;8207;52.494;4.654;2023-02-12T03:17:48;6.40;99.90
16200;DHT22;8207;52.494;4.654;2023-02-12T03:20:18;6.40;99.90
16200;DHT22;8207;52.494;4.654;2023-02-12T03:22:49;6.40;99.90
16200;DHT22;8207;52.494;4.654;2023-02-12T03:25:20;6.40;99.90
16200;DHT22;8207;52.494;4.654;2023-02-12T03:27:53;6.40;99.90
16200;DHT22;8207;52.494;4.654;2023-02-12T03:30:24;6.40;99.90
16200;DHT22;8207;52.494;4.654;2023-02-12T03:33:04;6.50;99.90
16200;DHT22;8207;52.494;4.654;2023-02-12T03:35:37;6.50;99.90
16200;DHT22;8207;52.494;4.654;2023-02-12T03:38:11;6.50;99.90
16200;DHT22;8207;52.494;4.654;2023-02-12T03:40:46;6.50;99.90
16200;DHT22;8207;52.494;4.654;2023-02-12T03:43:21;6.50;99.90
16200;DHT22;8207;52.494;4.654;2023-02-12T03:45:51;6.60;99.90
16200;DHT22;8207;52.494;4.654;2023-02-12T03:48:27;6.60;99.90
16200;DHT22;8207;52.494;4.654;2023-02-12T03:50:57;6.60;99.90
16200;DHT22;8207;52.494;4.654;2023-02-12T03:53:25;6.60;99.90
16200;DHT22;8207;52.494;4.654;2023-02-12T03:55:58;6.70;99.90
16200;DHT22;8207;52.494;4.654;2023-02-12T03:58:28;6.60;99.90
16200;DHT22;8207;52.494;4.654;2023-02-12T04:00:59;6.70;99.90
16200;DHT22;8207;52.494;4.654;2023-02-12T04:03:30;6.70;99.90
16200;DHT22;8207;52.494;4.654;2023-02-12T04:05:57;6.70;99.90
16200;DHT22;8207;52.494;4.654;2023-02-12T04:08:25;6.70;99.90
16200;DHT22;8207;52.494;4.654;2023-02-12T04:11:00;6.70;99.90
16200;DHT22;8207;52.494;4.654;2023-02-12T04:13:38;6.70;99.90
16200;DHT22;8207;52.494;4.654;2023-02-12T04:16:19;6.80;99.90
16200;DHT22;8207;52.494;4.654;2023-02-12T04:18:49;6.80;99.90
16200;DHT22;8207;52.494;4.654;2023-02-12T04:21:28;6.80;99.90
16200;DHT22;8207;52.494;4.654;2023-02-12T04:24:05;6.80;99.90
16200;DHT22;8207;52.494;4.654;2023-02-12T04:26:36;6.80;99.90
16200;DHT22;8207;52.494;4.654;2023-02-12T04:29:11;6.80;99.90
16200;DHT22;8207;52.494;4.654;2023-02-12T04:31:44;6.80;99.90
16200;DHT22;8207;52.494;4.654;2023-02-12T04:34:16;6.80;99.90
16200;DHT22;8207;52.494;4.654;2023-02-12T04:36:48;6.90;99.90
16200;DHT22;8207;52.494;4.654;2023-02-12T04:39:20;6.80;99.90
16200;DHT22;8207;52.494;4.654;2023-02-12T04:41:48;6.90;99.90
16200;DHT22;8207;52.494;4.654;2023-02-12T04:44:17;6.90;99.90
16200;DHT22;8207;52.494;4.654;2023-02-12T04:46:44;6.90;99.90
16200;DHT22;8207;52.494;4.654;2023-02-12T04:49:15;6.90;99.90
16200;DHT22;8207;52.494;4.654;2023-02-12T04:51:43;6.90;99.90
16200;DHT22;8207;52.494;4.654;2023-02-12T04:54:10;6.90;99.90
16200;DHT22;8207;52.494;4.654;2023-02-12T04:56:37;6.90;99.90
16200;DHT22;8207;52.494;4.654;2023-02-12T04:59:04;7.00;99.90
16200;DHT22;8207;52.494;4.654;2023-02-12T05:01:32;6.90;99.90
16200;DHT22;8207;52.494;4.654;2023-02-12T05:04:00;7.00;99.90
16200;DHT22;8207;52.494;4.654;2023-02-12T05:06:28;7.00;99.90
16200;DHT22;8207;52.494;4.654;2023-02-12T05:08:56;7.00;99.90
16200;DHT22;8207;52.494;4.654;2023-02-12T05:11:23;7.00;99.90
16200;DHT22;8207;52.494;4.654;2023-02-12T05:13:50;7.00;99.90
16200;DHT22;8207;52.494;4.654;2023-02-12T05:16:19;7.00;99.90
16200;DHT22;8207;52.494;4.654;2023-02-12T05:18:46;7.00;99.90
16200;DHT22;8207;52.494;4.654;2023-02-12T05:21:13;7.00;99.90
16200;DHT22;8207;52.494;4.654;2023-02-12T05:23:42;7.00;99.90
16200;DHT22;8207;52.494;4.654;2023-02-12T05:26:15;7.00;99.90
16200;DHT22;8207;52.494;4.654;2023-02-12T05:28:42;7.00;99.90
16200;DHT22;8207;52.494;4.654;2023-02-12T05:31:12;7.00;99.90
16200;DHT22;8207;52.494;4.654;2023-02-12T05:33:41;7.00;99.90
16200;DHT22;8207;52.494;4.654;2023-02-12T05:36:10;7.00;99.90
16200;DHT22;8207;52.494;4.654;2023-02-12T05:38:38;7.00;99.90
16200;DHT22;8207;52.494;4.654;2023-02-12T05:41:08;7.10;99.90
16200;DHT22;8207;52.494;4.654;2023-02-12T05:43:35;7.10;99.90
16200;DHT22;8207;52.494;4.654;2023-02-12T05:46:05;7.10;99.90
16200;DHT22;8207;52.494;4.654;2023-02-12T05:48:33;7.10;99.90
16200;DHT22;8207;52.494;4.654;2023-02-12T05:51:04;7.10;99.90
16200;DHT22;8207;52.494;4.654;2023-02-12T05:53:32;7.10;99.90
16200;DHT22;8207;52.494;4.654;2023-02-12T05:56:09;7.10;99.90
16200;DHT22;8207;52.494;4.654;2023-02-12T05:58:36;7.10;99.90
16200;DHT22;8207;52.494;4.654;2023-02-12T06:01:09;7.10;99.90
16200;DHT22;8207;52.494;4.654;2023-02-12T06:03:36;7.10;99.90
16200;DHT22;8207;52.494;4.654;2023-02-12T06:06:03;7.20;99.90
16200;DHT22;8207;52.494;4.654;2023-02-12T06:08:31;7.10;99.90
16200;DHT22;8207;52.494;4.654;2023-02-12T06:11:00;7.10;99.90
16200;DHT22;8207;52.494;4.654;2023-02-12T06:13:29;7.20;99.90
16200;DHT22;8207;52.494;4.654;2023-02-12T06:15:56;7.20;99.90
16200;DHT22;8207;52.494;4.654;2023-02-12T06:18:24;7.20;99.90
16200;DHT22;8207;52.494;4.654;2023-02-12T06:20:51;7.20;99.90
16200;DHT22;8207;52.494;4.654;2023-02-12T06:23:19;7.20;99.90
16200;DHT22;8207;52.494;4.654;2023-02-12T06:25:46;7.20;99.90
16200;DHT22;8207;52.494;4.654;2023-02-12T06:28:13;7.30;99.90
16200;DHT22;8207;52.494;4.654;2023-02-12T06:30:42;7.30;99.90
16200;DHT22;8207;52.494;4.654;2023-02-12T06:33:09;7.20;99.90
16200;DHT22;8207;52.494;4.654;2023-02-12T06:35:37;7.30;99.90
16200;DHT22;8207;52.494;4.654;2023-02-12T06:38:04;7.30;99.90
16200;DHT22;8207;52.494;4.654;2023-02-12T06:40:31;7.30;99.90
16200;DHT22;8207;52.494;4.654;2023-02-12T06:42:59;7.30;99.90
16200;DHT22;8207;52.494;4.654;2023-02-12T06:45:26;7.30;99.90
16200;DHT22;8207;52.494;4.654;2023-02-12T06:47:54;7.30;99.90
16200;DHT22;8207;52.494;4.654;2023-02-12T06:50:21;7.30;99.90
16200;DHT22;8207;52.494;4.654;2023-02-12T06:52:48;7.30;99.90
16200;DHT22;8207;52.494;4.654;2023-02-12T06:55:15;7.30;99.90
16200;DHT22;8207;52.494;4.654;2023-02-12T06:57:42;7.30;99.90
16200;DHT22;8207;52.494;4.654;2023-02-12T07:00:10;7.30;99.90
16200;DHT22;8207;52.494;4.654;2023-02-12T07:02:37;7.30;99.90
16200;DHT22;8207;52.494;4.654;2023-02-12T07:05:06;7.40;99.90
16200;DHT22;8207;52.494;4.654;2023-02-12T07:07:33;7.40;99.90
16200;DHT22;8207;52.494;4.654;2023-02-12T07:09:59;7.40;99.90
16200;DHT22;8207;52.494;4.654;2023-02-12T07:12:26;7.40;99.90
16200;DHT22;8207;52.494;4.654;2023-02-12T07:14:53;7.40;99.90
16200;DHT22;8207;52.494;4.654;2023-02-12T07:17:20;7.40;99.90
16200;DHT22;8207;52.494;4.654;2023-02-12T07:19:47;7.40;99.90
16200;DHT22;8207;52.494;4.654;2023-02-12T07:22:16;7.40;99.90
16200;DHT22;8207;52.494;4.654;2023-02-12T07:24:43;7.40;99.90
16200;DHT22;8207;52.494;4.654;2023-02-12T07:27:10;7.50;99.90
16200;DHT22;8207;52.494;4.654;2023-02-12T07:29:37;7.40;99.90
16200;DHT22;8207;52.494;4.654;2023-02-12T07:32:04;7.50;99.90
16200;DHT22;8207;52.494;4.654;2023-02-12T07:34:31;7.50;99.90
16200;DHT22;8207;52.494;4.654;2023-02-12T07:36:58;7.50;99.90
16200;DHT22;8207;52.494;4.654;2023-02-12T07:39:26;7.50;99.90
16200;DHT22;8207;52.494;4.654;2023-02-12T07:41:55;7.50;99.90
16200;DHT22;8207;52.494;4.654;2023-02-12T07:44:23;7.50;99.90
16200;DHT22;8207;52.494;4.654;2023-02-12T07:46:50;7.50;99.90
16200;DHT22;8207;52.494;4.654;2023-02-12T07:49:18;7.50;99.90
16200;DHT22;8207;52.494;4.654;2023-02-12T07:51:46;7.60;99.90
16200;DHT22;8207;52.494;4.654;2023-02-12T07:54:14;7.60;99.90
16200;DHT22;8207;52.494;4.654;2023-02-12T07:56:43;7.60;99.90
16200;DHT22;8207;52.494;4.654;2023-02-12T07:59:13;7.60;99.90
16200;DHT22;8207;52.494;4.654;2023-02-12T08:01:41;7.70;99.90
16200;DHT22;8207;52.494;4.654;2023-02-12T08:04:11;7.70;99.90
16200;DHT22;8207;52.494;4.654;2023-02-12T08:06:40;7.70;99.90
16200;DHT22;8207;52.494;4.654;2023-02-12T08:09:11;7.70;99.90
16200;DHT22;8207;52.494;4.654;2023-02-12T08:11:39;7.70;99.90
16200;DHT22;8207;52.494;4.654;2023-02-12T08:14:11;7.80;99.90
16200;DHT22;8207;52.494;4.654;2023-02-12T08:16:39;7.80;99.90
16200;DHT22;8207;52.494;4.654;2023-02-12T08:19:06;7.80;99.90
16200;DHT22;8207;52.494;4.654;2023-02-12T08:21:34;7.80;99.90
16200;DHT22;8207;52.494;4.654;2023-02-12T08:24:01;7.90;99.90
16200;DHT22;8207;52.494;4.654;2023-02-12T08:26:31;7.90;99.90
16200;DHT22;8207;52.494;4.654;2023-02-12T08:29:00;7.90;99.90
16200;DHT22;8207;52.494;4.654;2023-02-12T08:31:31;7.90;99.90
16200;DHT22;8207;52.494;4.654;2023-02-12T08:33:59;8.00;99.90
16200;DHT22;8207;52.494;4.654;2023-02-12T08:36:28;8.00;99.90
16200;DHT22;8207;52.494;4.654;2023-02-12T08:38:57;8.10;99.90
16200;DHT22;8207;52.494;4.654;2023-02-12T08:41:25;8.10;99.90
16200;DHT22;8207;52.494;4.654;2023-02-12T08:43:56;8.10;99.90
16200;DHT22;8207;52.494;4.654;2023-02-12T08:46:25;8.10;99.90
16200;DHT22;8207;52.494;4.654;2023-02-12T08:48:55;8.20;99.90
16200;DHT22;8207;52.494;4.654;2023-02-12T08:51:23;8.20;99.90
16200;DHT22;8207;52.494;4.654;2023-02-12T08:53:52;8.20;99.90
16200;DHT22;8207;52.494;4.654;2023-02-12T08:56:19;8.30;99.90
16200;DHT22;8207;52.494;4.654;2023-02-12T08:58:47;8.40;99.90
16200;DHT22;8207;52.494;4.654;2023-02-12T09:01:15;8.40;99.90
16200;DHT22;8207;52.494;4.654;2023-02-12T09:03:44;8.50;99.90
16200;DHT22;8207;52.494;4.654;2023-02-12T09:06:12;8.60;99.90
16200;DHT22;8207;52.494;4.654;2023-02-12T09:08:40;8.60;99.90
16200;DHT22;8207;52.494;4.654;2023-02-12T09:11:10;8.70;99.90
16200;DHT22;8207;52.494;4.654;2023-02-12T09:13:38;8.70;99.90
16200;DHT22;8207;52.494;4.654;2023-02-12T09:16:06;8.80;99.90
16200;DHT22;8207;52.494;4.654;2023-02-12T09:18:33;8.80;99.90
16200;DHT22;8207;52.494;4.654;2023-02-12T09:21:01;8.80;99.90
16200;DHT22;8207;52.494;4.654;2023-02-12T09:23:30;8.90;99.90
16200;DHT22;8207;52.494;4.654;2023-02-12T09:25:58;8.90;99.90
16200;DHT22;8207;52.494;4.654;2023-02-12T09:28:25;8.80;99.90
16200;DHT22;8207;52.494;4.654;2023-02-12T09:30:52;8.80;99.90
16200;DHT22;8207;52.494;4.654;2023-02-12T09:33:19;8.90;99.90
16200;DHT22;8207;52.494;4.654;2023-02-12T09:35:47;8.90;99.90
16200;DHT22;8207;52.494;4.654;2023-02-12T09:38:14;8.90;99.90
16200;DHT22;8207;52.494;4.654;2023-02-12T09:41:08;8.90;99.90
16200;DHT22;8207;52.494;4.654;2023-02-12T09:43:41;8.90;99.90
16200;DHT22;8207;52.494;4.654;2023-02-12T09:46:15;9.00;99.90
16200;DHT22;8207;52.494;4.654;2023-02-12T09:48:53;9.10;99.90
16200;DHT22;8207;52.494;4.654;2023-02-12T09:51:23;9.10;99.90
16200;DHT22;8207;52.494;4.654;2023-02-12T09:53:56;9.10;99.90
16200;DHT22;8207;52.494;4.654;2023-02-12T09:56:27;9.10;99.90
16200;DHT22;8207;52.494;4.654;2023-02-12T09:58:58;9.10;99.90
16200;DHT22;8207;52.494;4.654;2023-02-12T10:01:26;9.10;99.90
16200;DHT22;8207;52.494;4.654;2023-02-12T10:03:54;9.10;99.90
16200;DHT22;8207;52.494;4.654;2023-02-12T10:06:24;9.20;99.90
16200;DHT22;8207;52.494;4.654;2023-02-12T10:09:00;9.20;99.90
16200;DHT22;8207;52.494;4.654;2023-02-12T10:11:56;9.30;99.90
16200;DHT22;8207;52.494;4.654;2023-02-12T10:14:51;9.20;99.90
16200;DHT22;8207;52.494;4.654;2023-02-12T10:17:28;9.30;99.90
16200;DHT22;8207;52.494;4.654;2023-02-12T10:23:29;9.20;99.90
16200;DHT22;8207;52.494;4.654;2023-02-12T10:26:05;9.20;99.90
16200;DHT22;8207;52.494;4.654;2023-02-12T10:28:40;9.30;99.90
16200;DHT22;8207;52.494;4.654;2023-02-12T10:31:12;9.30;99.90
16200;DHT22;8207;52.494;4.654;2023-02-12T10:33:44;9.30;99.90
16200;DHT22;8207;52.494;4.654;2023-02-12T10:36:18;9.30;99.90
16200;DHT22;8207;52.494;4.654;2023-02-12T10:38:56;9.40;99.90
16200;DHT22;8207;52.494;4.654;2023-02-12T10:41:26;9.40;99.90
16200;DHT22;8207;52.494;4.654;2023-02-12T10:43:55;9.40;99.90
16200;DHT22;8207;52.494;4.654;2023-02-12T10:46:23;9.40;99.90
16200;DHT22;8207;52.494;4.654;2023-02-12T10:48:52;9.50;99.90
16200;DHT22;8207;52.494;4.654;2023-02-12T10:51:57;9.50;99.90
16200;DHT22;8207;52.494;4.654;2023-02-12T10:54:40;9.50;99.90
16200;DHT22;8207;52.494;4.654;2023-02-12T10:57:14;9.50;99.90
16200;DHT22;8207;52.494;4.654;2023-02-12T10:59:46;9.50;99.90
16200;DHT22;8207;52.494;4.654;2023-02-12T11:02:26;9.60;99.90
16200;DHT22;8207;52.494;4.654;2023-02-12T11:04:54;9.60;99.90
16200;DHT22;8207;52.494;4.654;2023-02-12T11:07:23;9.60;99.90
16200;DHT22;8207;52.494;4.654;2023-02-12T11:09:52;9.60;99.90
16200;DHT22;8207;52.494;4.654;2023-02-12T11:12:31;9.70;99.90
16200;DHT22;8207;52.494;4.654;2023-02-12T11:15:03;9.70;99.90
16200;DHT22;8207;52.494;4.654;2023-02-12T11:17:36;9.70;99.90
16200;DHT22;8207;52.494;4.654;2023-02-12T11:20:14;9.80;99.90
16200;DHT22;8207;52.494;4.654;2023-02-12T11:22:52;9.80;99.90
16200;DHT22;8207;52.494;4.654;2023-02-12T11:25:21;9.80;99.90
16200;DHT22;8207;52.494;4.654;2023-02-12T11:28:14;9.80;99.90
16200;DHT22;8207;52.494;4.654;2023-02-12T11:30:51;9.70;99.90
16200;DHT22;8207;52.494;4.654;2023-02-12T11:33:24;9.80;99.90
16200;DHT22;8207;52.494;4.654;2023-02-12T11:35:53;9.80;99.90
16200;DHT22;8207;52.494;4.654;2023-02-12T11:38:33;9.90;99.90
16200;DHT22;8207;52.494;4.654;2023-02-12T11:41:20;9.90;99.90
16200;DHT22;8207;52.494;4.654;2023-02-12T11:43:50;9.90;99.90
16200;DHT22;8207;52.494;4.654;2023-02-12T11:46:21;9.90;99.90
16200;DHT22;8207;52.494;4.654;2023-02-12T11:48:50;9.90;99.90
16200;DHT22;8207;52.494;4.654;2023-02-12T11:51:20;9.90;99.90
16200;DHT22;8207;52.494;4.654;2023-02-12T11:53:50;9.90;99.90
16200;DHT22;8207;52.494;4.654;2023-02-12T11:56:18;9.90;99.90
16200;DHT22;8207;52.494;4.654;2023-02-12T11:58:46;9.90;99.90
16200;DHT22;8207;52.494;4.654;2023-02-12T12:01:20;9.90;99.90
16200;DHT22;8207;52.494;4.654;2023-02-12T12:03:57;9.90;99.90
16200;DHT22;8207;52.494;4.654;2023-02-12T12:06:32;9.90;99.90
16200;DHT22;8207;52.494;4.654;2023-02-12T12:09:05;9.90;99.90
16200;DHT22;8207;52.494;4.654;2023-02-12T12:11:45;9.90;99.90
16200;DHT22;8207;52.494;4.654;2023-02-12T12:14:16;9.90;99.90
16200;DHT22;8207;52.494;4.654;2023-02-12T12:16:54;9.90;99.90
16200;DHT22;8207;52.494;4.654;2023-02-12T12:19:45;10.00;99.90
16200;DHT22;8207;52.494;4.654;2023-02-12T12:22:39;10.00;99.90
16200;DHT22;8207;52.494;4.654;2023-02-12T12:25:15;10.00;99.90
16200;DHT22;8207;52.494;4.654;2023-02-12T12:27:54;10.00;99.90
16200;DHT22;8207;52.494;4.654;2023-02-12T12:33:32;10.00;99.90
16200;DHT22;8207;52.494;4.654;2023-02-12T12:39:15;10.00;99.90
16200;DHT22;8207;52.494;4.654;2023-02-12T12:41:54;10.00;99.90
16200;DHT22;8207;52.494;4.654;2023-02-12T12:44:31;10.00;99.90
16200;DHT22;8207;52.494;4.654;2023-02-12T12:47:14;10.10;99.90
16200;DHT22;8207;52.494;4.654;2023-02-12T12:49:57;10.10;99.90
16200;DHT22;8207;52.494;4.654;2023-02-12T12:52:59;10.10;99.90
16200;DHT22;8207;52.494;4.654;2023-02-12T12:58:35;10.10;99.90
16200;DHT22;8207;52.494;4.654;2023-02-12T13:01:35;10.10;99.90
16200;DHT22;8207;52.494;4.654;2023-02-12T13:07:16;10.00;99.90
16200;DHT22;8207;52.494;4.654;2023-02-12T13:09:51;10.00;99.90
16200;DHT22;8207;52.494;4.654;2023-02-12T13:12:36;10.00;99.90
16200;DHT22;8207;52.494;4.654;2023-02-12T13:15:11;10.00;99.90
16200;DHT22;8207;52.494;4.654;2023-02-12T13:17:44;10.00;99.90
16200;DHT22;8207;52.494;4.654;2023-02-12T13:20:18;10.00;99.90
16200;DHT22;8207;52.494;4.654;2023-02-12T13:22:53;10.00;99.90
16200;DHT22;8207;52.494;4.654;2023-02-12T13:25:27;10.00;99.90
16200;DHT22;8207;52.494;4.654;2023-02-12T13:27:58;10.00;99.90
16200;DHT22;8207;52.494;4.654;2023-02-12T13:30:29;10.00;99.90
16200;DHT22;8207;52.494;4.654;2023-02-12T13:33:04;10.00;99.90
16200;DHT22;8207;52.494;4.654;2023-02-12T13:35:34;10.00;99.90
16200;DHT22;8207;52.494;4.654;2023-02-12T13:38:05;10.00;99.90
16200;DHT22;8207;52.494;4.654;2023-02-12T13:40:33;10.10;99.90
16200;DHT22;8207;52.494;4.654;2023-02-12T13:43:10;10.00;99.90
16200;DHT22;8207;52.494;4.654;2023-02-12T13:45:45;10.00;99.90
16200;DHT22;8207;52.494;4.654;2023-02-12T13:48:36;10.00;99.90
16200;DHT22;8207;52.494;4.654;2023-02-12T13:51:14;9.90;99.90
16200;DHT22;8207;52.494;4.654;2023-02-12T13:53:54;9.90;99.90
16200;DHT22;8207;52.494;4.654;2023-02-12T13:56:31;9.90;99.90
16200;DHT22;8207;52.494;4.654;2023-02-12T13:59:00;9.90;99.90
16200;DHT22;8207;52.494;4.654;2023-02-12T14:01:41;10.00;99.90
16200;DHT22;8207;52.494;4.654;2023-02-12T14:04:21;10.00;99.90
16200;DHT22;8207;52.494;4.654;2023-02-12T14:06:56;10.00;99.90
16200;DHT22;8207;52.494;4.654;2023-02-12T14:09:30;10.00;99.90
16200;DHT22;8207;52.494;4.654;2023-02-12T14:11:59;9.90;99.90
16200;DHT22;8207;52.494;4.654;2023-02-12T14:14:30;9.90;99.90
16200;DHT22;8207;52.494;4.654;2023-02-12T14:16:58;9.90;99.90
16200;DHT22;8207;52.494;4.654;2023-02-12T14:19:55;9.90;99.90
16200;DHT22;8207;52.494;4.654;2023-02-12T14:25:47;9.90;99.90
16200;DHT22;8207;52.494;4.654;2023-02-12T14:28:26;9.80;99.90
16200;DHT22;8207;52.494;4.654;2023-02-12T14:37:35;9.80;99.90
16200;DHT22;8207;52.494;4.654;2023-02-12T14:40:36;9.80;99.90
16200;DHT22;8207;52.494;4.654;2023-02-12T14:43:31;9.80;99.90
16200;DHT22;8207;52.494;4.654;2023-02-12T14:49:18;9.80;99.90
16200;DHT22;8207;52.494;4.654;2023-02-12T14:51:55;9.70;99.90
16200;DHT22;8207;52.494;4.654;2023-02-12T14:54:28;9.70;99.90
16200;DHT22;8207;52.494;4.654;2023-02-12T14:56:59;9.70;99.90
16200;DHT22;8207;52.494;4.654;2023-02-12T14:59:30;9.70;99.90
16200;DHT22;8207;52.494;4.654;2023-02-12T15:02:01;9.70;99.90
16200;DHT22;8207;52.494;4.654;2023-02-12T15:04:33;9.60;99.90
16200;DHT22;8207;52.494;4.654;2023-02-12T15:07:06;9.60;99.90
16200;DHT22;8207;52.494;4.654;2023-02-12T15:09:36;9.60;99.90
16200;DHT22;8207;52.494;4.654;2023-02-12T15:12:11;9.60;99.90
16200;DHT22;8207;52.494;4.654;2023-02-12T15:14:44;9.50;99.90
16200;DHT22;8207;52.494;4.654;2023-02-12T15:17:19;9.50;99.90
16200;DHT22;8207;52.494;4.654;2023-02-12T15:19:53;9.40;99.90
16200;DHT22;8207;52.494;4.654;2023-02-12T15:22:25;9.40;99.90
16200;DHT22;8207;52.494;4.654;2023-02-12T15:25:13;9.40;99.90
16200;DHT22;8207;52.494;4.654;2023-02-12T15:27:41;9.30;99.90
16200;DHT22;8207;52.494;4.654;2023-02-12T15:30:14;9.20;99.90
16200;DHT22;8207;52.494;4.654;2023-02-12T15:32:43;9.20;99.90
16200;DHT22;8207;52.494;4.654;2023-02-12T15:35:23;9.20;99.90
16200;DHT22;8207;52.494;4.654;2023-02-12T15:37:51;9.30;99.90
16200;DHT22;8207;52.494;4.654;2023-02-12T15:40:18;9.20;99.90
16200;DHT22;8207;52.494;4.654;2023-02-12T15:42:52;9.20;99.90
16200;DHT22;8207;52.494;4.654;2023-02-12T15:45:21;9.20;99.90
16200;DHT22;8207;52.494;4.654;2023-02-12T15:47:59;9.20;99.90
16200;DHT22;8207;52.494;4.654;2023-02-12T15:50:29;9.20;99.90
16200;DHT22;8207;52.494;4.654;2023-02-12T15:52:57;9.10;99.90
16200;DHT22;8207;52.494;4.654;2023-02-12T15:55:26;9.10;99.90
16200;DHT22;8207;52.494;4.654;2023-02-12T15:57:56;9.10;99.90
16200;DHT22;8207;52.494;4.654;2023-02-12T16:00:28;9.00;99.90
16200;DHT22;8207;52.494;4.654;2023-02-12T16:02:56;9.10;99.90
16200;DHT22;8207;52.494;4.654;2023-02-12T16:05:23;9.00;99.90
16200;DHT22;8207;52.494;4.654;2023-02-12T16:07:53;9.00;99.90
16200;DHT22;8207;52.494;4.654;2023-02-12T16:10:21;9.00;99.90
16200;DHT22;8207;52.494;4.654;2023-02-12T16:12:49;9.00;99.90
16200;DHT22;8207;52.494;4.654;2023-02-12T16:15:27;9.00;99.90
16200;DHT22;8207;52.494;4.654;2023-02-12T16:17:55;9.00;99.90
16200;DHT22;8207;52.494;4.654;2023-02-12T16:20:25;9.00;99.90
16200;DHT22;8207;52.494;4.654;2023-02-12T16:22:54;8.90;99.90
16200;DHT22;8207;52.494;4.654;2023-02-12T16:25:23;8.90;99.90
16200;DHT22;8207;52.494;4.654;2023-02-12T16:27:56;8.90;99.90
16200;DHT22;8207;52.494;4.654;2023-02-12T16:30:26;8.90;99.90
16200;DHT22;8207;52.494;4.654;2023-02-12T16:32:54;8.90;99.90
16200;DHT22;8207;52.494;4.654;2023-02-12T16:35:25;8.90;99.90
16200;DHT22;8207;52.494;4.654;2023-02-12T16:37:55;8.80;99.90
16200;DHT22;8207;52.494;4.654;2023-02-12T16:40:29;8.80;99.90
16200;DHT22;8207;52.494;4.654;2023-02-12T16:42:59;8.80;99.90
16200;DHT22;8207;52.494;4.654;2023-02-12T16:45:42;8.80;99.90
16200;DHT22;8207;52.494;4.654;2023-02-12T16:48:16;8.80;99.90
16200;DHT22;8207;52.494;4.654;2023-02-12T16:50:46;8.80;99.90
16200;DHT22;8207;52.494;4.654;2023-02-12T16:53:31;8.80;99.90
16200;DHT22;8207;52.494;4.654;2023-02-12T16:56:00;8.80;99.90
16200;DHT22;8207;52.494;4.654;2023-02-12T16:58:27;8.70;99.90
16200;DHT22;8207;52.494;4.654;2023-02-12T17:00:55;8.70;99.90